sensor_id;sensor_type;location;lat;lon;timestamp;P1;durP1;ratioP1;P2;durP2;ratioP2
56063;SDS011;41940;52.880;13.012;2022-07-29T08:02:54;4.43;;;1.95;;
56063;SDS011;41940;52.880;13.012;2022-07-29T08:05:19;10.65;;;2.83;;
56063;SDS011;41940;52.880;13.012;2022-07-29T08:07:45;5.47;;;2.47;;
56063;SDS011;41940;52.880;13.012;2022-07-29T08:10:13;7.65;;;2.80;;
56063;SDS011;41940;52.880;13.012;2022-07-29T08:12:39;6.50;;;2.55;;
56063;SDS011;41940;52.880;13.012;2022-07-29T08:15:05;8.15;;;2.53;;
56063;SDS011;41940;52.880;13.012;2022-07-29T08:17:32;5.35;;;2.20;;
56063;SDS011;41940;52.880;13.012;2022-07-29T08:19:58;9.60;;;2.38;;
56063;SDS011;41940;52.880;13.012;2022-07-29T08:22:23;8.90;;;2.58;;
56063;SDS011;41940;52.880;13.012;2022-07-29T08:24:49;9.23;;;2.63;;
56063;SDS011;41940;52.880;13.012;2022-07-29T08:27:18;7.80;;;2.20;;
56063;SDS011;41940;52.880;13.012;2022-07-29T08:29:44;12.00;;;2.83;;
56063;SDS011;41940;52.880;13.012;2022-07-29T08:32:10;6.40;;;2.28;;
56063;SDS011;41940;52.880;13.012;2022-07-29T08:34:35;4.20;;;2.45;;
56063;SDS011;41940;52.880;13.012;2022-07-29T08:37:01;5.20;;;2.20;;
56063;SDS011;41940;52.880;13.012;2022-07-29T08:39:27;10.38;;;2.70;;
56063;SDS011;41940;52.880;13.012;2022-07-29T08:41:52;3.97;;;2.30;;
56063;SDS011;41940;52.880;13.012;2022-07-29T08:44:18;9.20;;;2.13;;
56063;SDS011;41940;52.880;13.012;2022-07-29T08:46:44;12.27;;;2.00;;
56063;SDS011;41940;52.880;13.012;2022-07-29T08:49:10;14.23;;;2.08;;
56063;SDS011;41940;52.880;13.012;2022-07-29T08:51:36;2.90;;;1.75;;
56063;SDS011;41940;52.880;13.012;2022-07-29T08:54:04;3.30;;;1.83;;
56063;SDS011;41940;52.880;13.012;2022-07-29T08:56:30;14.23;;;2.00;;
56063;SDS011;41940;52.880;13.012;2022-07-29T08:58:57;9.75;;;2.35;;
56063;SDS011;41940;52.880;13.012;2022-07-29T09:01:24;5.88;;;2.22;;
56063;SDS011;41940;52.880;13.012;2022-07-29T09:03:54;5.82;;;2.20;;
56063;SDS011;41940;52.880;13.012;2022-07-29T09:06:22;9.15;;;2.30;;
56063;SDS011;41940;52.880;13.012;2022-07-29T09:08:51;6.75;;;1.83;;
56063;SDS011;41940;52.880;13.012;2022-07-29T09:11:16;8.18;;;2.30;;
56063;SDS011;41940;52.880;13.012;2022-07-29T09:13:42;14.13;;;2.22;;
56063;SDS011;41940;52.880;13.012;2022-07-29T09:16:07;13.65;;;2.10;;
56063;SDS011;41940;52.880;13.012;2022-07-29T09:18:34;6.25;;;1.85;;
56063;SDS011;41940;52.880;13.012;2022-07-29T09:21:04;8.65;;;2.42;;
56063;SDS011;41940;52.880;13.012;2022-07-29T09:26:29;8.60;;;2.10;;
56063;SDS011;41940;52.880;13.012;2022-07-29T09:28:56;7.15;;;2.10;;
56063;SDS011;41940;52.880;13.012;2022-07-29T09:31:32;4.47;;;1.90;;
56063;SDS011;41940;52.880;13.012;2022-07-29T09:33:59;14.48;;;1.73;;
56063;SDS011;41940;52.880;13.012;2022-07-29T09:36:25;22.25;;;3.13;;
56063;SDS011;41940;52.880;13.012;2022-07-29T09:39:01;17.60;;;2.33;;
56063;SDS011;41940;52.880;13.012;2022-07-29T09:41:28;7.57;;;2.15;;
56063;SDS011;41940;52.880;13.012;2022-07-29T09:43:55;5.00;;;1.90;;
56063;SDS011;41940;52.880;13.012;2022-07-29T09:46:21;23.58;;;2.33;;
56063;SDS011;41940;52.880;13.012;2022-07-29T09:49:05;20.92;;;2.22;;
56063;SDS011;41940;52.880;13.012;2022-07-29T09:51:32;12.15;;;1.75;;
56063;SDS011;41940;52.880;13.012;2022-07-29T09:53:58;16.35;;;2.58;;
56063;SDS011;41940;52.880;13.012;2022-07-29T09:56:38;6.60;;;1.92;;
56063;SDS011;41940;52.880;13.012;2022-07-29T09:59:08;15.32;;;1.92;;
56063;SDS011;41940;52.880;13.012;2022-07-29T10:01:34;5.32;;;1.52;;
56063;SDS011;41940;52.880;13.012;2022-07-29T10:04:01;2.92;;;1.40;;
56063;SDS011;41940;52.880;13.012;2022-07-29T10:06:26;9.32;;;1.65;;
56063;SDS011;41940;52.880;13.012;2022-07-29T10:08:52;3.15;;;1.50;;
56063;SDS011;41940;52.880;13.012;2022-07-29T10:11:18;10.98;;;1.92;;
56063;SDS011;41940;52.880;13.012;2022-07-29T10:13:45;4.60;;;1.50;;
56063;SDS011;41940;52.880;13.012;2022-07-29T10:16:12;4.00;;;2.15;;
56063;SDS011;41940;52.880;13.012;2022-07-29T10:18:39;2.33;;;1.48;;
56063;SDS011;41940;52.880;13.012;2022-07-29T10:21:06;8.15;;;1.98;;
56063;SDS011;41940;52.880;13.012;2022-07-29T10:23:32;8.73;;;2.70;;
56063;SDS011;41940;52.880;13.012;2022-07-29T10:25:59;4.45;;;1.30;;
56063;SDS011;41940;52.880;13.012;2022-07-29T10:28:25;36.40;;;2.60;;
56063;SDS011;41940;52.880;13.012;2022-07-29T10:30:51;8.10;;;1.65;;
56063;SDS011;41940;52.880;13.012;2022-07-29T10:38:43;5.70;;;1.23;;
56063;SDS011;41940;52.880;13.012;2022-07-29T10:44:35;7.35;;;1.45;;
56063;SDS011;41940;52.880;13.012;2022-07-29T10:46:54;3.13;;;1.63;;
56063;SDS011;41940;52.880;13.012;2022-07-29T10:49:24;7.78;;;1.58;;
56063;SDS011;41940;52.880;13.012;2022-07-29T10:51:55;4.70;;;1.75;;
56063;SDS011;41940;52.880;13.012;2022-07-29T10:59:50;10.63;;;4.47;;
56063;SDS011;41940;52.880;13.012;2022-07-29T11:05:02;7.13;;;1.70;;
56063;SDS011;41940;52.880;13.012;2022-07-29T11:07:30;18.65;;;1.88;;
56063;SDS011;41940;52.880;13.012;2022-07-29T11:15:10;3.35;;;1.73;;
56063;SDS011;41940;52.880;13.012;2022-07-29T11:22:59;8.55;;;1.58;;
56063;SDS011;41940;52.880;13.012;2022-07-29T11:25:26;20.55;;;2.65;;
56063;SDS011;41940;52.880;13.012;2022-07-29T11:27:52;5.25;;;1.30;;
56063;SDS011;41940;52.880;13.012;2022-07-29T11:30:19;6.75;;;1.38;;
56063;SDS011;41940;52.880;13.012;2022-07-29T11:32:45;8.38;;;2.08;;
56063;SDS011;41940;52.880;13.012;2022-07-29T11:35:12;5.30;;;1.83;;
56063;SDS011;41940;52.880;13.012;2022-07-29T11:37:40;10.52;;;1.60;;
56063;SDS011;41940;52.880;13.012;2022-07-29T11:47:35;1.80;;;1.58;;
56063;SDS011;41940;52.880;13.012;2022-07-29T11:50:06;31.25;;;3.58;;
56063;SDS011;41940;52.880;13.012;2022-07-29T11:52:37;23.40;;;2.53;;
56063;SDS011;41940;52.880;13.012;2022-07-29T11:55:09;10.80;;;2.08;;
56063;SDS011;41940;52.880;13.012;2022-07-29T11:57:37;5.95;;;2.63;;
56063;SDS011;41940;52.880;13.012;2022-07-29T12:02:43;3.88;;;1.73;;
56063;SDS011;41940;52.880;13.012;2022-07-29T12:05:09;5.75;;;1.35;;
56063;SDS011;41940;52.880;13.012;2022-07-29T12:07:38;3.25;;;1.63;;
56063;SDS011;41940;52.880;13.012;2022-07-29T12:10:05;14.73;;;1.48;;
56063;SDS011;41940;52.880;13.012;2022-07-29T12:12:32;38.70;;;2.67;;
56063;SDS011;41940;52.880;13.012;2022-07-29T12:15:09;3.05;;;1.38;;
56063;SDS011;41940;52.880;13.012;2022-07-29T12:17:36;6.50;;;1.50;;
56063;SDS011;41940;52.880;13.012;2022-07-29T12:20:03;3.00;;;1.52;;
56063;SDS011;41940;52.880;13.012;2022-07-29T12:22:30;12.13;;;2.17;;
56063;SDS011;41940;52.880;13.012;2022-07-29T12:25:01;11.30;;;1.50;;
56063;SDS011;41940;52.880;13.012;2022-07-29T12:27:28;12.25;;;2.05;;
56063;SDS011;41940;52.880;13.012;2022-07-29T12:29:57;19.27;;;1.92;;
56063;SDS011;41940;52.880;13.012;2022-07-29T12:32:31;15.77;;;1.87;;
56063;SDS011;41940;52.880;13.012;2022-07-29T12:35:15;6.35;;;2.33;;
56063;SDS011;41940;52.880;13.012;2022-07-29T12:37:44;10.15;;;1.88;;
56063;SDS011;41940;52.880;13.012;2022-07-29T12:40:13;31.95;;;3.67;;
56063;SDS011;41940;52.880;13.012;2022-07-29T12:43:04;12.50;;;1.55;;
56063;SDS011;41940;52.880;13.012;2022-07-29T12:45:47;36.03;;;4.22;;
56063;SDS011;41940;52.880;13.012;2022-07-29T12:48:32;6.68;;;1.75;;
56063;SDS011;41940;52.880;13.012;2022-07-29T12:50:59;3.38;;;1.77;;
56063;SDS011;41940;52.880;13.012;2022-07-29T12:53:27;3.60;;;1.35;;
56063;SDS011;41940;52.880;13.012;2022-07-29T12:55:53;5.47;;;1.73;;
56063;SDS011;41940;52.880;13.012;2022-07-29T12:58:37;8.20;;;1.80;;
56063;SDS011;41940;52.880;13.012;2022-07-29T13:01:05;14.77;;;1.90;;
56063;SDS011;41940;52.880;13.012;2022-07-29T13:09:02;7.40;;;1.45;;
56063;SDS011;41940;52.880;13.012;2022-07-29T13:11:39;4.10;;;1.33;;
56063;SDS011;41940;52.880;13.012;2022-07-29T13:14:07;7.60;;;1.08;;
56063;SDS011;41940;52.880;13.012;2022-07-29T13:16:34;7.72;;;1.80;;
56063;SDS011;41940;52.880;13.012;2022-07-29T13:19:04;19.13;;;1.92;;
56063;SDS011;41940;52.880;13.012;2022-07-29T13:21:34;5.75;;;1.58;;
56063;SDS011;41940;52.880;13.012;2022-07-29T13:24:00;1.08;;;0.93;;
56063;SDS011;41940;52.880;13.012;2022-07-29T13:26:26;12.10;;;1.92;;
56063;SDS011;41940;52.880;13.012;2022-07-29T13:28:53;3.40;;;1.38;;
56063;SDS011;41940;52.880;13.012;2022-07-29T13:31:19;5.38;;;1.60;;
56063;SDS011;41940;52.880;13.012;2022-07-29T13:33:45;7.55;;;1.98;;
56063;SDS011;41940;52.880;13.012;2022-07-29T13:36:10;4.65;;;1.80;;
56063;SDS011;41940;52.880;13.012;2022-07-29T13:38:36;2.50;;;1.35;;
56063;SDS011;41940;52.880;13.012;2022-07-29T13:41:01;5.15;;;1.90;;
56063;SDS011;41940;52.880;13.012;2022-07-29T13:43:27;5.10;;;1.63;;
56063;SDS011;41940;52.880;13.012;2022-07-29T13:45:52;9.02;;;2.05;;
56063;SDS011;41940;52.880;13.012;2022-07-29T13:48:17;8.98;;;1.33;;
56063;SDS011;41940;52.880;13.012;2022-07-29T13:50:43;3.47;;;1.80;;
56063;SDS011;41940;52.880;13.012;2022-07-29T13:53:09;5.47;;;1.70;;
56063;SDS011;41940;52.880;13.012;2022-07-29T13:55:34;7.78;;;1.88;;
56063;SDS011;41940;52.880;13.012;2022-07-29T13:58:00;3.30;;;1.75;;
56063;SDS011;41940;52.880;13.012;2022-07-29T14:00:25;8.10;;;1.80;;
56063;SDS011;41940;52.880;13.012;2022-07-29T14:02:51;5.95;;;1.48;;
56063;SDS011;41940;52.880;13.012;2022-07-29T14:05:17;6.63;;;1.88;;
56063;SDS011;41940;52.880;13.012;2022-07-29T14:07:42;7.00;;;1.85;;
56063;SDS011;41940;52.880;13.012;2022-07-29T14:10:08;4.47;;;1.90;;
56063;SDS011;41940;52.880;13.012;2022-07-29T14:12:34;3.50;;;1.58;;
56063;SDS011;41940;52.880;13.012;2022-07-29T14:14:59;6.53;;;2.00;;
56063;SDS011;41940;52.880;13.012;2022-07-29T14:17:25;4.78;;;1.92;;
56063;SDS011;41940;52.880;13.012;2022-07-29T14:19:50;13.88;;;1.90;;
56063;SDS011;41940;52.880;13.012;2022-07-29T14:22:15;12.88;;;2.28;;
56063;SDS011;41940;52.880;13.012;2022-07-29T14:24:44;10.18;;;2.28;;
56063;SDS011;41940;52.880;13.012;2022-07-29T14:27:10;4.40;;;1.88;;
56063;SDS011;41940;52.880;13.012;2022-07-29T14:29:36;4.93;;;1.67;;
56063;SDS011;41940;52.880;13.012;2022-07-29T14:32:01;11.90;;;2.53;;
56063;SDS011;41940;52.880;13.012;2022-07-29T14:34:27;10.60;;;3.28;;
56063;SDS011;41940;52.880;13.012;2022-07-29T14:36:53;19.88;;;2.72;;
56063;SDS011;41940;52.880;13.012;2022-07-29T14:39:23;8.88;;;2.42;;
56063;SDS011;41940;52.880;13.012;2022-07-29T14:41:48;8.98;;;2.20;;
56063;SDS011;41940;52.880;13.012;2022-07-29T14:44:16;6.50;;;2.25;;
56063;SDS011;41940;52.880;13.012;2022-07-29T14:46:42;4.80;;;1.88;;
56063;SDS011;41940;52.880;13.012;2022-07-29T14:49:08;6.32;;;1.85;;
56063;SDS011;41940;52.880;13.012;2022-07-29T14:51:34;7.72;;;2.03;;
56063;SDS011;41940;52.880;13.012;2022-07-29T14:53:59;9.60;;;3.35;;
56063;SDS011;41940;52.880;13.012;2022-07-29T14:56:25;4.10;;;1.73;;
56063;SDS011;41940;52.880;13.012;2022-07-29T14:58:50;8.50;;;2.17;;
56063;SDS011;41940;52.880;13.012;2022-07-29T15:01:16;21.73;;;2.00;;
56063;SDS011;41940;52.880;13.012;2022-07-29T15:03:41;6.03;;;1.67;;
56063;SDS011;41940;52.880;13.012;2022-07-29T15:06:07;7.75;;;2.40;;
56063;SDS011;41940;52.880;13.012;2022-07-29T15:08:32;4.88;;;2.08;;
56063;SDS011;41940;52.880;13.012;2022-07-29T15:10:58;3.22;;;1.80;;
56063;SDS011;41940;52.880;13.012;2022-07-29T15:13:24;18.17;;;2.00;;
56063;SDS011;41940;52.880;13.012;2022-07-29T15:15:50;27.48;;;2.80;;
56063;SDS011;41940;52.880;13.012;2022-07-29T15:18:16;8.73;;;1.95;;
56063;SDS011;41940;52.880;13.012;2022-07-29T15:20:42;3.42;;;2.00;;
56063;SDS011;41940;52.880;13.012;2022-07-29T15:23:10;3.13;;;1.80;;
56063;SDS011;41940;52.880;13.012;2022-07-29T15:25:37;5.05;;;2.20;;
56063;SDS011;41940;52.880;13.012;2022-07-29T15:28:03;12.43;;;2.40;;
56063;SDS011;41940;52.880;13.012;2022-07-29T15:30:32;8.35;;;2.22;;
56063;SDS011;41940;52.880;13.012;2022-07-29T15:33:03;6.47;;;2.35;;
56063;SDS011;41940;52.880;13.012;2022-07-29T15:35:29;7.65;;;2.03;;
56063;SDS011;41940;52.880;13.012;2022-07-29T15:37:54;5.75;;;1.80;;
56063;SDS011;41940;52.880;13.012;2022-07-29T15:40:19;6.22;;;1.98;;
56063;SDS011;41940;52.880;13.012;2022-07-29T15:42:45;7.10;;;1.92;;
56063;SDS011;41940;52.880;13.012;2022-07-29T15:45:10;44.20;;;4.13;;
56063;SDS011;41940;52.880;13.012;2022-07-29T15:47:36;17.35;;;2.13;;
56063;SDS011;41940;52.880;13.012;2022-07-29T15:50:02;4.35;;;2.00;;
56063;SDS011;41940;52.880;13.012;2022-07-29T15:52:27;5.90;;;2.45;;
56063;SDS011;41940;52.880;13.012;2022-07-29T15:54:54;2.90;;;2.10;;
56063;SDS011;41940;52.880;13.012;2022-07-29T15:57:20;14.45;;;2.25;;
56063;SDS011;41940;52.880;13.012;2022-07-29T15:59:46;5.80;;;1.90;;
56063;SDS011;41940;52.880;13.012;2022-07-29T16:02:11;2.90;;;2.17;;
56063;SDS011;41940;52.880;13.012;2022-07-29T16:04:37;5.65;;;1.85;;
56063;SDS011;41940;52.880;13.012;2022-07-29T16:07:02;14.32;;;1.95;;
56063;SDS011;41940;52.880;13.012;2022-07-29T16:09:28;10.60;;;2.17;;
56063;SDS011;41940;52.880;13.012;2022-07-29T16:11:53;10.00;;;2.72;;
56063;SDS011;41940;52.880;13.012;2022-07-29T16:14:20;9.50;;;2.45;;
56063;SDS011;41940;52.880;13.012;2022-07-29T16:16:46;15.80;;;2.45;;
56063;SDS011;41940;52.880;13.012;2022-07-29T16:19:12;11.05;;;2.30;;
56063;SDS011;41940;52.880;13.012;2022-07-29T16:21:37;7.57;;;2.03;;
56063;SDS011;41940;52.880;13.012;2022-07-29T16:24:04;11.82;;;2.08;;
56063;SDS011;41940;52.880;13.012;2022-07-29T16:26:29;3.65;;;2.08;;
56063;SDS011;41940;52.880;13.012;2022-07-29T16:28:55;17.13;;;2.63;;
56063;SDS011;41940;52.880;13.012;2022-07-29T16:31:21;75.50;;;5.60;;
56063;SDS011;41940;52.880;13.012;2022-07-29T16:33:50;76.82;;;6.38;;
56063;SDS011;41940;52.880;13.012;2022-07-29T16:36:16;11.82;;;2.20;;
56063;SDS011;41940;52.880;13.012;2022-07-29T16:38:43;3.55;;;2.10;;
56063;SDS011;41940;52.880;13.012;2022-07-29T16:41:09;15.63;;;2.38;;
56063;SDS011;41940;52.880;13.012;2022-07-29T16:43:34;7.88;;;2.08;;
56063;SDS011;41940;52.880;13.012;2022-07-29T16:46:00;6.03;;;1.98;;
56063;SDS011;41940;52.880;13.012;2022-07-29T16:48:25;6.43;;;2.30;;
56063;SDS011;41940;52.880;13.012;2022-07-29T16:50:51;4.38;;;1.77;;
56063;SDS011;41940;52.880;13.012;2022-07-29T16:53:16;11.20;;;2.30;;
56063;SDS011;41940;52.880;13.012;2022-07-29T16:55:42;9.48;;;2.90;;
56063;SDS011;41940;52.880;13.012;2022-07-29T16:58:08;7.00;;;1.85;;
56063;SDS011;41940;52.880;13.012;2022-07-29T17:00:34;8.55;;;2.17;;
56063;SDS011;41940;52.880;13.012;2022-07-29T17:03:00;7.15;;;2.35;;
56063;SDS011;41940;52.880;13.012;2022-07-29T17:05:26;4.88;;;1.80;;
56063;SDS011;41940;52.880;13.012;2022-07-29T17:07:52;16.33;;;3.10;;
56063;SDS011;41940;52.880;13.012;2022-07-29T17:10:18;6.03;;;1.80;;
56063;SDS011;41940;52.880;13.012;2022-07-29T17:12:44;5.55;;;1.85;;
56063;SDS011;41940;52.880;13.012;2022-07-29T17:15:10;6.25;;;2.00;;
56063;SDS011;41940;52.880;13.012;2022-07-29T17:17:37;4.30;;;2.03;;
56063;SDS011;41940;52.880;13.012;2022-07-29T17:20:05;76.57;;;5.60;;
56063;SDS011;41940;52.880;13.012;2022-07-29T17:22:32;18.05;;;2.50;;
56063;SDS011;41940;52.880;13.012;2022-07-29T17:24:58;11.20;;;2.20;;
56063;SDS011;41940;52.880;13.012;2022-07-29T17:27:23;4.15;;;1.38;;
56063;SDS011;41940;52.880;13.012;2022-07-29T17:29:48;8.57;;;1.77;;
56063;SDS011;41940;52.880;13.012;2022-07-29T17:32:14;19.98;;;3.63;;
56063;SDS011;41940;52.880;13.012;2022-07-29T17:34:40;6.95;;;1.70;;
56063;SDS011;41940;52.880;13.012;2022-07-29T17:37:07;17.98;;;2.45;;
56063;SDS011;41940;52.880;13.012;2022-07-29T17:39:35;4.90;;;1.90;;
56063;SDS011;41940;52.880;13.012;2022-07-29T17:42:04;6.30;;;2.13;;
56063;SDS011;41940;52.880;13.012;2022-07-29T17:44:31;5.88;;;2.10;;
56063;SDS011;41940;52.880;13.012;2022-07-29T17:46:57;9.65;;;1.75;;
56063;SDS011;41940;52.880;13.012;2022-07-29T17:49:22;2.78;;;1.63;;
56063;SDS011;41940;52.880;13.012;2022-07-29T17:51:48;9.48;;;2.17;;
56063;SDS011;41940;52.880;13.012;2022-07-29T17:54:13;8.30;;;1.70;;
56063;SDS011;41940;52.880;13.012;2022-07-29T17:56:39;9.70;;;2.00;;
56063;SDS011;41940;52.880;13.012;2022-07-29T17:59:05;8.90;;;2.17;;
56063;SDS011;41940;52.880;13.012;2022-07-29T18:01:33;10.13;;;1.90;;
56063;SDS011;41940;52.880;13.012;2022-07-29T18:03:58;5.40;;;2.00;;
56063;SDS011;41940;52.880;13.012;2022-07-29T18:06:24;3.15;;;1.83;;
56063;SDS011;41940;52.880;13.012;2022-07-29T18:08:50;9.88;;;1.73;;
56063;SDS011;41940;52.880;13.012;2022-07-29T18:11:15;2.08;;;1.88;;
56063;SDS011;41940;52.880;13.012;2022-07-29T18:13:41;9.65;;;2.13;;
56063;SDS011;41940;52.880;13.012;2022-07-29T18:16:06;5.43;;;1.92;;
56063;SDS011;41940;52.880;13.012;2022-07-29T18:18:33;4.22;;;1.90;;
56063;SDS011;41940;52.880;13.012;2022-07-29T18:20:59;21.05;;;3.30;;
56063;SDS011;41940;52.880;13.012;2022-07-29T18:23:25;7.05;;;2.25;;
56063;SDS011;41940;52.880;13.012;2022-07-29T18:25:50;4.80;;;2.00;;
56063;SDS011;41940;52.880;13.012;2022-07-29T18:28:16;3.63;;;1.67;;
56063;SDS011;41940;52.880;13.012;2022-07-29T18:30:41;12.57;;;2.65;;
56063;SDS011;41940;52.880;13.012;2022-07-29T18:33:07;11.98;;;2.70;;
56063;SDS011;41940;52.880;13.012;2022-07-29T18:35:36;9.23;;;3.30;;
56063;SDS011;41940;52.880;13.012;2022-07-29T18:38:02;6.25;;;3.13;;
56063;SDS011;41940;52.880;13.012;2022-07-29T18:40:29;5.47;;;2.92;;
56063;SDS011;41940;52.880;13.012;2022-07-29T18:42:55;10.57;;;2.28;;
56063;SDS011;41940;52.880;13.012;2022-07-29T18:45:21;14.20;;;3.30;;
56063;SDS011;41940;52.880;13.012;2022-07-29T18:47:46;6.40;;;3.35;;
56063;SDS011;41940;52.880;13.012;2022-07-29T18:50:13;9.18;;;3.67;;
56063;SDS011;41940;52.880;13.012;2022-07-29T18:52:39;8.68;;;4.13;;
56063;SDS011;41940;52.880;13.012;2022-07-29T18:55:04;7.57;;;2.88;;
56063;SDS011;41940;52.880;13.012;2022-07-29T18:57:31;5.68;;;2.40;;
56063;SDS011;41940;52.880;13.012;2022-07-29T18:59:56;6.38;;;2.65;;
56063;SDS011;41940;52.880;13.012;2022-07-29T19:02:22;3.67;;;2.85;;
56063;SDS011;41940;52.880;13.012;2022-07-29T19:04:47;112.95;;;9.93;;
56063;SDS011;41940;52.880;13.012;2022-07-29T19:07:15;115.18;;;10.98;;
56063;SDS011;41940;52.880;13.012;2022-07-29T19:09:42;93.88;;;8.98;;
56063;SDS011;41940;52.880;13.012;2022-07-29T19:12:10;23.88;;;4.70;;
56063;SDS011;41940;52.880;13.012;2022-07-29T19:14:36;7.75;;;3.20;;
56063;SDS011;41940;52.880;13.012;2022-07-29T19:17:02;9.77;;;3.72;;
56063;SDS011;41940;52.880;13.012;2022-07-29T19:19:27;57.80;;;11.77;;
56063;SDS011;41940;52.880;13.012;2022-07-29T19:21:53;13.27;;;4.00;;
56063;SDS011;41940;52.880;13.012;2022-07-29T19:24:18;29.05;;;5.13;;
56063;SDS011;41940;52.880;13.012;2022-07-29T19:26:43;14.65;;;4.10;;
56063;SDS011;41940;52.880;13.012;2022-07-29T19:29:12;13.05;;;3.92;;
56063;SDS011;41940;52.880;13.012;2022-07-29T19:31:39;14.77;;;4.00;;
56063;SDS011;41940;52.880;13.012;2022-07-29T19:34:05;17.63;;;4.40;;
56063;SDS011;41940;52.880;13.012;2022-07-29T19:36:30;8.40;;;3.63;;
56063;SDS011;41940;52.880;13.012;2022-07-29T19:38:56;9.02;;;3.85;;
56063;SDS011;41940;52.880;13.012;2022-07-29T19:41:21;17.05;;;3.95;;
56063;SDS011;41940;52.880;13.012;2022-07-29T19:43:47;9.82;;;3.90;;
56063;SDS011;41940;52.880;13.012;2022-07-29T19:46:12;13.35;;;3.90;;
56063;SDS011;41940;52.880;13.012;2022-07-29T19:48:38;32.20;;;5.15;;
56063;SDS011;41940;52.880;13.012;2022-07-29T19:51:03;48.30;;;6.00;;
56063;SDS011;41940;52.880;13.012;2022-07-29T19:53:29;20.13;;;4.53;;
56063;SDS011;41940;52.880;13.012;2022-07-29T19:55:54;4.80;;;3.55;;
56063;SDS011;41940;52.880;13.012;2022-07-29T19:58:19;12.30;;;3.90;;
56063;SDS011;41940;52.880;13.012;2022-07-29T20:00:45;12.57;;;3.75;;
56063;SDS011;41940;52.880;13.012;2022-07-29T20:03:10;3.92;;;3.42;;
56063;SDS011;41940;52.880;13.012;2022-07-29T20:05:36;11.27;;;3.85;;
56063;SDS011;41940;52.880;13.012;2022-07-29T20:08:02;7.57;;;3.50;;
56063;SDS011;41940;52.880;13.012;2022-07-29T20:10:29;7.32;;;3.13;;
56063;SDS011;41940;52.880;13.012;2022-07-29T20:12:54;9.75;;;3.83;;
56063;SDS011;41940;52.880;13.012;2022-07-29T20:15:19;6.40;;;3.72;;
56063;SDS011;41940;52.880;13.012;2022-07-29T20:17:45;3.78;;;3.45;;
56063;SDS011;41940;52.880;13.012;2022-07-29T20:20:10;6.07;;;3.38;;
56063;SDS011;41940;52.880;13.012;2022-07-29T20:22:36;11.45;;;3.42;;
56063;SDS011;41940;52.880;13.012;2022-07-29T20:25:02;4.32;;;3.20;;
56063;SDS011;41940;52.880;13.012;2022-07-29T20:27:28;10.02;;;3.80;;
56063;SDS011;41940;52.880;13.012;2022-07-29T20:29:54;11.57;;;3.67;;
56063;SDS011;41940;52.880;13.012;2022-07-29T20:32:19;6.63;;;3.65;;
56063;SDS011;41940;52.880;13.012;2022-07-29T20:34:45;5.88;;;3.17;;
56063;SDS011;41940;52.880;13.012;2022-07-29T20:37:11;10.43;;;3.20;;
56063;SDS011;41940;52.880;13.012;2022-07-29T20:39:39;11.60;;;2.95;;
56063;SDS011;41940;52.880;13.012;2022-07-29T20:42:07;13.50;;;3.25;;
56063;SDS011;41940;52.880;13.012;2022-07-29T20:44:33;16.10;;;2.80;;
56063;SDS011;41940;52.880;13.012;2022-07-29T20:46:58;5.88;;;2.90;;
56063;SDS011;41940;52.880;13.012;2022-07-29T20:49:24;4.72;;;3.15;;
56063;SDS011;41940;52.880;13.012;2022-07-29T20:51:49;7.95;;;3.00;;
56063;SDS011;41940;52.880;13.012;2022-07-29T20:54:14;12.32;;;3.10;;
56063;SDS011;41940;52.880;13.012;2022-07-29T20:56:40;15.27;;;3.22;;
56063;SDS011;41940;52.880;13.012;2022-07-29T20:59:06;12.57;;;2.78;;
56063;SDS011;41940;52.880;13.012;2022-07-29T21:01:32;9.05;;;2.63;;
56063;SDS011;41940;52.880;13.012;2022-07-29T21:03:57;10.25;;;2.80;;
56063;SDS011;41940;52.880;13.012;2022-07-29T21:06:24;22.42;;;3.17;;
56063;SDS011;41940;52.880;13.012;2022-07-29T21:08:50;9.98;;;3.22;;
56063;SDS011;41940;52.880;13.012;2022-07-29T21:11:15;8.40;;;2.78;;
56063;SDS011;41940;52.880;13.012;2022-07-29T21:13:41;4.38;;;2.58;;
56063;SDS011;41940;52.880;13.012;2022-07-29T21:16:09;5.65;;;1.95;;
56063;SDS011;41940;52.880;13.012;2022-07-29T21:18:38;10.98;;;2.40;;
56063;SDS011;41940;52.880;13.012;2022-07-29T21:21:05;3.72;;;2.20;;
56063;SDS011;41940;52.880;13.012;2022-07-29T21:23:31;9.63;;;2.70;;
56063;SDS011;41940;52.880;13.012;2022-07-29T21:25:56;7.05;;;2.53;;
56063;SDS011;41940;52.880;13.012;2022-07-29T21:28:22;6.38;;;2.40;;
56063;SDS011;41940;52.880;13.012;2022-07-29T21:31:13;9.90;;;3.13;;
56063;SDS011;41940;52.880;13.012;2022-07-29T21:33:41;5.90;;;2.60;;
56063;SDS011;41940;52.880;13.012;2022-07-29T21:36:10;9.63;;;2.10;;
56063;SDS011;41940;52.880;13.012;2022-07-29T21:38:36;6.20;;;2.30;;
56063;SDS011;41940;52.880;13.012;2022-07-29T21:41:02;8.20;;;2.17;;
56063;SDS011;41940;52.880;13.012;2022-07-29T21:43:28;9.90;;;2.42;;
56063;SDS011;41940;52.880;13.012;2022-07-29T21:45:55;13.65;;;2.33;;
56063;SDS011;41940;52.880;13.012;2022-07-29T21:48:21;4.75;;;2.03;;
56063;SDS011;41940;52.880;13.012;2022-07-29T21:50:48;4.68;;;2.45;;
56063;SDS011;41940;52.880;13.012;2022-07-29T21:53:15;12.80;;;2.55;;
56063;SDS011;41940;52.880;13.012;2022-07-29T21:55:41;6.55;;;2.20;;
56063;SDS011;41940;52.880;13.012;2022-07-29T21:58:07;8.93;;;2.45;;
56063;SDS011;41940;52.880;13.012;2022-07-29T22:00:33;9.95;;;2.10;;
56063;SDS011;41940;52.880;13.012;2022-07-29T22:02:59;5.00;;;2.20;;
56063;SDS011;41940;52.880;13.012;2022-07-29T22:05:26;11.15;;;1.90;;
56063;SDS011;41940;52.880;13.012;2022-07-29T22:07:55;14.60;;;2.03;;
56063;SDS011;41940;52.880;13.012;2022-07-29T22:10:21;8.70;;;2.40;;
56063;SDS011;41940;52.880;13.012;2022-07-29T22:12:54;12.05;;;2.55;;
56063;SDS011;41940;52.880;13.012;2022-07-29T22:15:20;17.65;;;3.03;;
56063;SDS011;41940;52.880;13.012;2022-07-29T22:17:47;8.00;;;2.28;;
56063;SDS011;41940;52.880;13.012;2022-07-29T22:20:12;5.85;;;2.47;;
56063;SDS011;41940;52.880;13.012;2022-07-29T22:22:38;6.28;;;2.15;;
56063;SDS011;41940;52.880;13.012;2022-07-29T22:25:03;15.38;;;2.72;;
56063;SDS011;41940;52.880;13.012;2022-07-29T22:27:29;3.72;;;2.00;;
56063;SDS011;41940;52.880;13.012;2022-07-29T22:29:55;2.47;;;2.15;;
56063;SDS011;41940;52.880;13.012;2022-07-29T22:32:20;14.23;;;2.08;;
56063;SDS011;41940;52.880;13.012;2022-07-29T22:34:47;7.72;;;2.10;;
56063;SDS011;41940;52.880;13.012;2022-07-29T22:37:12;6.90;;;1.98;;
56063;SDS011;41940;52.880;13.012;2022-07-29T22:39:37;12.02;;;2.50;;
56063;SDS011;41940;52.880;13.012;2022-07-29T22:42:03;9.30;;;2.38;;
56063;SDS011;41940;52.880;13.012;2022-07-29T22:44:28;7.93;;;2.33;;
56063;SDS011;41940;52.880;13.012;2022-07-29T22:46:55;6.90;;;2.63;;
56063;SDS011;41940;52.880;13.012;2022-07-29T22:49:21;8.18;;;2.17;;
56063;SDS011;41940;52.880;13.012;2022-07-29T22:51:46;4.45;;;2.10;;
56063;SDS011;41940;52.880;13.012;2022-07-29T22:54:11;8.18;;;2.65;;
56063;SDS011;41940;52.880;13.012;2022-07-29T22:56:37;10.95;;;1.98;;
56063;SDS011;41940;52.880;13.012;2022-07-29T22:59:02;7.18;;;2.45;;
56063;SDS011;41940;52.880;13.012;2022-07-29T23:01:31;8.20;;;2.10;;
56063;SDS011;41940;52.880;13.012;2022-07-29T23:03:56;4.65;;;1.90;;
56063;SDS011;41940;52.880;13.012;2022-07-29T23:06:22;9.18;;;2.17;;
56063;SDS011;41940;52.880;13.012;2022-07-29T23:08:47;7.28;;;2.35;;
56063;SDS011;41940;52.880;13.012;2022-07-29T23:11:13;7.68;;;2.10;;
56063;SDS011;41940;52.880;13.012;2022-07-29T23:13:38;5.50;;;2.50;;
56063;SDS011;41940;52.880;13.012;2022-07-29T23:16:04;12.65;;;2.40;;